Time,TemperatureF,DewpointF,PressureIn,WindDirection,WindDirectionDegrees,WindSpeedMPH,WindSpeedGustMPH,Humidity,HourlyPrecipIn,Conditions,Clouds,dailyrainin,SoftwareType,DateUTC
2013-05-15 00:00:00,52.5,40.3,29.90,ESE,115,1.0,1.0,63,0.00,,,0.00,Wunderground v.1.15,2013-05-15 04:00:00,
2013-05-15 00:05:00,52.5,40.3,29.91,ESE,108,1.0,1.0,63,0.00,,,0.00,Wunderground v.1.15,2013-05-15 04:05:00,
2013-05-15 00:15:00,52.5,40.7,29.90,SSE,150,1.0,1.0,64,0.00,,,0.00,Wunderground v.1.15,2013-05-15 04:15:00,
2013-05-15 00:20:00,52.5,40.7,29.90,SE,131,1.0,1.0,64,0.00,,,0.00,Wunderground v.1.15,2013-05-15 04:20:00,
2013-05-15 00:25:00,52.5,41.1,29.90,ESE,105,1.0,1.0,65,0.00,,,0.00,Wunderground v.1.15,2013-05-15 04:25:00,
2013-05-15 00:35:00,52.5,41.1,29.90,SSE,150,1.0,1.0,65,0.00,,,0.00,Wunderground v.1.15,2013-05-15 04:35:00,
2013-05-15 00:40:00,52.5,41.1,29.89,SE,146,1.0,3.0,65,0.00,,,0.00,Wunderground v.1.15,2013-05-15 04:40:00,
2013-05-15 00:45:00,52.5,41.1,29.89,SSE,153,1.0,3.0,65,0.00,,,0.00,Wunderground v.1.15,2013-05-15 04:45:00,
2013-05-15 00:55:00,52.5,41.5,29.88,SE,139,1.0,1.0,66,0.00,,,0.00,Wunderground v.1.15,2013-05-15 04:55:00,
2013-05-15 01:05:00,52.5,41.5,29.88,ESE,120,1.0,1.0,66,0.00,,,0.00,Wunderground v.1.15,2013-05-15 05:05:00,
2013-05-15 01:10:00,52.5,41.5,29.87,SE,134,1.0,1.0,66,0.00,,,0.00,Wunderground v.1.15,2013-05-15 05:10:00,
2013-05-15 01:20:00,52.2,41.6,29.87,ESE,122,0.0,1.0,67,0.00,,,0.00,Wunderground v.1.15,2013-05-15 05:20:00,
2013-05-15 01:30:00,52.0,41.8,29.85,SSE,148,1.0,1.0,68,0.00,,,0.00,Wunderground v.1.15,2013-05-15 05:30:00,
2013-05-15 01:35:00,51.8,41.6,29.85,SE,132,1.0,1.0,68,0.00,,,0.00,Wunderground v.1.15,2013-05-15 05:35:00,
2013-05-15 01:45:00,51.5,41.7,29.85,ESE,116,1.0,1.0,69,0.00,,,0.00,Wunderground v.1.15,2013-05-15 05:45:00,
2013-05-15 01:55:00,51.3,41.5,29.85,SSE,152,0.0,0.0,69,0.00,,,0.00,Wunderground v.1.15,2013-05-15 05:55:00,
2013-05-15 02:01:00,51.2,41.4,29.85,SSE,150,0.0,0.0,69,0.00,,,0.00,Wunderground v.1.15,2013-05-15 06:01:00,
2013-05-15 02:10:00,51.2,41.4,29.86,SSW,203,0.0,0.0,69,0.00,,,0.00,Wunderground v.1.15,2013-05-15 06:10:00,
2013-05-15 02:20:00,51.3,41.8,29.86,SSE,158,0.0,0.0,70,0.00,,,0.00,Wunderground v.1.15,2013-05-15 06:20:00,
2013-05-15 02:25:00,51.2,41.7,29.86,SSE,158,0.0,0.0,70,0.00,,,0.00,Wunderground v.1.15,2013-05-15 06:25:00,
2013-05-15 02:30:00,51.2,41.7,29.86,SSE,158,0.0,0.0,70,0.00,,,0.00,Wunderground v.1.15,2013-05-15 06:30:00,
2013-05-15 02:35:00,51.1,41.7,29.85,SSE,158,0.0,0.0,70,0.00,,,0.00,Wunderground v.1.15,2013-05-15 06:35:00,
2013-05-15 02:40:00,51.0,41.6,29.85,SSE,158,0.0,0.0,70,0.00,,,0.00,Wunderground v.1.15,2013-05-15 06:40:00,
2013-05-15 02:50:00,51.0,41.9,29.85,SSE,158,0.0,0.0,71,0.00,,,0.00,Wunderground v.1.15,2013-05-15 06:50:00,
2013-05-15 03:00:00,50.9,41.8,29.84,SE,133,0.0,0.0,71,0.00,,,0.00,Wunderground v.1.15,2013-05-15 07:00:00,
2013-05-15 03:05:00,50.9,41.8,29.83,ESE,118,0.0,0.0,71,0.00,,,0.00,Wunderground v.1.15,2013-05-15 07:05:00,
2013-05-15 03:15:00,50.5,41.4,29.83,ESE,118,0.0,0.0,71,0.00,,,0.00,Wunderground v.1.15,2013-05-15 07:15:00,
2013-05-15 03:25:00,50.3,41.6,29.83,ESE,118,0.0,0.0,72,0.00,,,0.00,Wunderground v.1.15,2013-05-15 07:25:00,
2013-05-15 03:30:00,50.3,41.6,29.82,ESE,118,0.0,0.0,72,0.00,,,0.00,Wunderground v.1.15,2013-05-15 07:30:00,
2013-05-15 03:35:00,50.4,41.7,29.81,ESE,118,0.0,0.0,72,0.00,,,0.00,Wunderground v.1.15,2013-05-15 07:35:00,
2013-05-15 03:45:00,50.6,41.5,29.80,ESE,122,0.0,0.0,71,0.00,,,0.00,Wunderground v.1.15,2013-05-15 07:45:00,
2013-05-15 03:50:00,50.7,41.6,29.81,SE,145,0.0,0.0,71,0.00,,,0.00,Wunderground v.1.15,2013-05-15 07:50:00,
2013-05-15 03:55:00,50.9,41.8,29.80,SE,126,0.0,0.0,71,0.00,,,0.00,Wunderground v.1.15,2013-05-15 07:55:00,
2013-05-15 04:05:00,51.1,41.3,29.79,SSE,158,0.0,0.0,69,0.00,,,0.00,Wunderground v.1.15,2013-05-15 08:05:00,
2013-05-15 04:15:00,51.1,41.3,29.78,SE,143,0.0,0.0,69,0.00,,,0.00,Wunderground v.1.15,2013-05-15 08:15:00,
2013-05-15 04:21:00,51.2,41.4,29.78,ESE,113,0.0,0.0,69,0.00,,,0.00,Wunderground v.1.15,2013-05-15 08:21:00,
2013-05-15 04:30:00,51.3,41.1,29.79,NW,324,0.0,0.0,68,0.00,,,0.00,Wunderground v.1.15,2013-05-15 08:30:00,
2013-05-15 04:35:00,51.3,41.1,29.79,NW,324,0.0,0.0,68,0.00,,,0.00,Wunderground v.1.15,2013-05-15 08:35:00,
2013-05-15 04:45:00,51.3,42.2,29.77,ESE,120,0.0,0.0,71,0.00,,,0.00,Wunderground v.1.15,2013-05-15 08:45:00,
2013-05-15 04:55:00,51.3,42.2,29.76,ESE,108,0.0,1.0,71,0.00,,,0.00,Wunderground v.1.15,2013-05-15 08:55:00,
2013-05-15 05:01:00,51.3,41.8,29.76,NE,55,0.0,1.0,70,0.00,,,0.00,Wunderground v.1.15,2013-05-15 09:01:00,
2013-05-15 05:10:00,51.5,42.0,29.76,NE,55,0.0,0.0,70,0.00,,,0.00,Wunderground v.1.15,2013-05-15 09:10:00,
2013-05-15 05:20:00,51.6,41.8,29.77,ENE,65,0.0,0.0,69,0.00,,,0.00,Wunderground v.1.15,2013-05-15 09:20:00,
2013-05-15 05:30:00,51.6,41.8,29.78,ENE,65,0.0,0.0,69,0.00,,,0.00,Wunderground v.1.15,2013-05-15 09:30:00,
2013-05-15 05:40:00,51.5,42.8,29.76,ENE,70,0.0,0.0,72,0.00,,,0.00,Wunderground v.1.15,2013-05-15 09:40:00,
2013-05-15 05:50:00,51.5,43.1,29.75,SE,141,1.0,1.0,73,0.00,,,0.00,Wunderground v.1.15,2013-05-15 09:50:00,
2013-05-15 05:55:00,51.4,43.0,29.75,SSE,148,0.0,1.0,73,0.00,,,0.00,Wunderground v.1.15,2013-05-15 09:55:00,
2013-05-15 06:05:00,50.9,42.9,29.73,East,99,0.0,1.0,74,0.00,,,0.00,Wunderground v.1.15,2013-05-15 10:05:00,
2013-05-15 06:15:00,50.8,43.2,29.73,SE,125,0.0,0.0,75,0.00,,,0.00,Wunderground v.1.15,2013-05-15 10:15:00,
2013-05-15 06:20:00,50.9,43.3,29.73,SE,126,0.0,0.0,75,0.00,,,0.00,Wunderground v.1.15,2013-05-15 10:20:00,
2013-05-15 06:25:00,51.0,43.4,29.73,SE,145,0.0,0.0,75,0.00,,,0.00,Wunderground v.1.15,2013-05-15 10:25:00,
2013-05-15 06:30:00,51.2,43.2,29.73,SE,145,0.0,0.0,74,0.00,,,0.00,Wunderground v.1.15,2013-05-15 10:30:00,
2013-05-15 06:40:00,51.5,43.5,29.72,SE,135,0.0,0.0,74,0.00,,,0.00,Wunderground v.1.15,2013-05-15 10:40:00,
2013-05-15 06:50:00,51.8,43.8,29.72,ENE,68,0.0,1.0,74,0.00,,,0.00,Wunderground v.1.15,2013-05-15 10:50:00,
2013-05-15 06:55:00,51.7,44.0,29.71,ESE,113,0.0,1.0,75,0.00,,,0.00,Wunderground v.1.15,2013-05-15 10:55:00,
2013-05-15 07:06:00,51.7,44.4,29.71,SE,146,0.0,1.0,76,0.00,,,0.00,Wunderground v.1.15,2013-05-15 11:06:00,
2013-05-15 07:11:00,51.9,44.2,29.71,SE,145,0.0,0.0,75,0.00,,,0.00,Wunderground v.1.15,2013-05-15 11:11:00,
2013-05-15 07:20:00,52.6,44.5,29.67,SSE,158,1.0,1.0,74,0.00,,,0.00,Wunderground v.1.15,2013-05-15 11:20:00,
2013-05-15 07:30:00,52.6,44.9,29.69,NE,42,0.0,0.0,75,0.00,,,0.00,Wunderground v.1.15,2013-05-15 11:30:00,
2013-05-15 07:35:00,52.8,45.1,29.69,NE,41,0.0,0.0,75,0.00,,,0.00,Wunderground v.1.15,2013-05-15 11:35:00,
2013-05-15 07:46:00,53.0,46.3,29.68,NE,41,0.0,0.0,78,0.00,,,0.00,Wunderground v.1.15,2013-05-15 11:46:00,
2013-05-15 07:55:00,53.4,46.0,29.67,SE,145,0.0,0.0,76,0.00,,,0.00,Wunderground v.1.15,2013-05-15 11:55:00,
2013-05-15 08:01:00,53.8,46.4,29.66,SSE,160,0.0,0.0,76,0.00,,,0.00,Wunderground v.1.15,2013-05-15 12:01:00,
2013-05-15 08:11:00,54.5,46.7,29.66,SSE,154,1.0,1.0,75,0.00,,,0.00,Wunderground v.1.15,2013-05-15 12:11:00,
2013-05-15 08:20:00,55.9,47.7,29.67,South,169,1.0,1.0,74,0.00,,,0.00,Wunderground v.1.15,2013-05-15 12:20:00,
2013-05-15 08:30:00,57.1,47.4,29.66,SE,145,2.0,2.0,70,0.00,,,0.00,Wunderground v.1.15,2013-05-15 12:30:00,
2013-05-15 08:35:00,58.3,48.2,29.66,SSE,166,2.0,4.0,69,0.00,,,0.00,Wunderground v.1.15,2013-05-15 12:35:00,
2013-05-15 08:45:00,59.9,48.5,29.65,South,183,3.0,3.0,66,0.00,,,0.00,Wunderground v.1.15,2013-05-15 12:45:00,
2013-05-15 08:50:00,60.3,48.1,29.65,SSE,158,3.0,5.0,64,0.00,,,0.00,Wunderground v.1.15,2013-05-15 12:50:00,
2013-05-15 09:00:00,61.2,48.9,29.64,SSE,162,2.0,2.0,64,0.00,,,0.00,Wunderground v.1.15,2013-05-15 13:00:00,
2013-05-15 09:10:00,61.9,49.2,29.63,SSE,154,3.0,3.0,63,0.00,,,0.00,Wunderground v.1.15,2013-05-15 13:10:00,
2013-05-15 09:20:00,62.6,49.0,29.62,SE,145,3.0,5.0,61,0.00,,,0.00,Wunderground v.1.15,2013-05-15 13:20:00,
2013-05-15 09:25:00,63.5,50.2,29.63,SE,145,3.0,5.0,62,0.00,,,0.00,Wunderground v.1.15,2013-05-15 13:25:00,
2013-05-15 09:30:00,64.1,49.9,29.62,SE,134,3.0,3.0,60,0.00,,,0.00,Wunderground v.1.15,2013-05-15 13:30:00,
2013-05-15 09:36:00,65.0,49.9,29.62,SSE,165,3.0,4.0,58,0.00,,,0.00,Wunderground v.1.15,2013-05-15 13:36:00,
2013-05-15 09:45:00,66.4,51.2,29.61,SSE,167,3.0,5.0,58,0.00,,,0.00,Wunderground v.1.15,2013-05-15 13:45:00,
2013-05-15 09:51:00,66.9,51.6,29.61,SSE,168,3.0,3.0,58,0.00,,,0.00,Wunderground v.1.15,2013-05-15 13:51:00,
2013-05-15 09:56:00,67.7,52.4,29.61,South,169,3.0,3.0,58,0.00,,,0.00,Wunderground v.1.15,2013-05-15 13:56:00,
2013-05-15 10:05:00,68.6,52.3,29.61,SSW,192,4.0,11.0,56,0.00,,,0.00,Wunderground v.1.15,2013-05-15 14:05:00,
2013-05-15 10:15:00,69.4,53.0,29.60,SSE,163,4.0,5.0,56,0.00,,,0.00,Wunderground v.1.15,2013-05-15 14:15:00,
2013-05-15 10:25:00,70.0,53.1,29.59,South,179,5.0,5.0,55,0.00,,,0.00,Wunderground v.1.15,2013-05-15 14:25:00,
2013-05-15 10:30:00,70.6,53.6,29.59,SSE,152,5.0,8.0,55,0.00,,,0.00,Wunderground v.1.15,2013-05-15 14:30:00,
2013-05-15 10:40:00,71.1,54.1,29.58,SSW,193,5.0,8.0,55,0.00,,,0.00,Wunderground v.1.15,2013-05-15 14:40:00,
2013-05-15 10:45:00,71.4,53.9,29.58,WSW,238,6.0,8.0,54,0.00,,,0.00,Wunderground v.1.15,2013-05-15 14:45:00,
2013-05-15 10:50:00,71.8,54.3,29.58,SSE,166,6.0,11.0,54,0.00,,,0.00,Wunderground v.1.15,2013-05-15 14:50:00,
2013-05-15 10:56:00,72.0,54.4,29.57,WSW,245,6.0,11.0,54,0.00,,,0.00,Wunderground v.1.15,2013-05-15 14:56:00,
2013-05-15 11:01:00,72.7,55.1,29.57,SW,232,5.0,6.0,54,0.00,,,0.00,Wunderground v.1.15,2013-05-15 15:01:00,
2013-05-15 11:06:00,73.1,54.9,29.57,SW,229,5.0,6.0,53,0.00,,,0.00,Wunderground v.1.15,2013-05-15 15:06:00,
2013-05-15 11:11:00,73.4,55.2,29.57,WSW,249,5.0,8.0,53,0.00,,,0.00,Wunderground v.1.15,2013-05-15 15:11:00,
2013-05-15 11:20:00,73.8,55.6,29.57,SW,233,6.0,6.0,53,0.00,,,0.00,Wunderground v.1.15,2013-05-15 15:20:00,
2013-05-15 11:30:00,74.7,56.4,29.56,SSW,198,6.0,6.0,53,0.00,,,0.00,Wunderground v.1.15,2013-05-15 15:30:00,
2013-05-15 11:35:00,74.7,56.4,29.56,SW,225,7.0,7.0,53,0.00,,,0.00,Wunderground v.1.15,2013-05-15 15:35:00,
2013-05-15 11:45:00,74.9,57.1,29.55,NNW,340,7.0,11.0,54,0.00,,,0.00,Wunderground v.1.15,2013-05-15 15:45:00,
2013-05-15 11:51:00,75.4,57.6,29.56,SSW,204,6.0,6.0,54,0.00,,,0.00,Wunderground v.1.15,2013-05-15 15:51:00,
2013-05-15 11:56:00,75.6,57.3,29.55,SW,223,6.0,9.0,53,0.00,,,0.00,Wunderground v.1.15,2013-05-15 15:56:00,
2013-05-15 12:01:00,74.7,56.4,29.55,SW,226,7.0,12.0,53,0.00,,,0.00,Wunderground v.1.15,2013-05-15 16:01:00,
2013-05-15 12:10:00,74.0,56.8,29.54,SE,136,8.0,8.0,55,0.00,,,0.00,Wunderground v.1.15,2013-05-15 16:10:00,
2013-05-15 12:15:00,74.2,57.5,29.54,SSE,155,8.0,8.0,56,0.00,,,0.00,Wunderground v.1.15,2013-05-15 16:15:00,
2013-05-15 12:25:00,74.9,57.1,29.55,WNW,293,7.0,18.0,54,0.00,,,0.00,Wunderground v.1.15,2013-05-15 16:25:00,
2013-05-15 12:35:00,74.7,57.5,29.55,SW,214,8.0,11.0,55,0.00,,,0.00,Wunderground v.1.15,2013-05-15 16:35:00,
2013-05-15 12:40:00,74.8,57.0,29.54,SSW,198,7.0,7.0,54,0.00,,,0.00,Wunderground v.1.15,2013-05-15 16:40:00,
2013-05-15 12:55:00,74.7,57.5,29.54,NW,315,7.0,9.0,55,0.00,,,0.00,Wunderground v.1.15,2013-05-15 16:55:00,
2013-05-15 13:05:00,74.2,57.0,29.55,SSW,197,7.0,7.0,55,0.00,,,0.00,Wunderground v.1.15,2013-05-15 17:05:00,
2013-05-15 13:11:00,73.7,57.0,29.55,South,191,7.0,7.0,56,0.00,,,0.00,Wunderground v.1.15,2013-05-15 17:11:00,
2013-05-15 13:20:00,72.7,56.6,29.56,SSW,195,7.0,7.0,57,0.00,,,0.00,Wunderground v.1.15,2013-05-15 17:20:00,
2013-05-15 13:30:00,72.3,56.2,29.56,NW,323,5.0,6.0,57,0.00,,,0.00,Wunderground v.1.15,2013-05-15 17:30:00,
2013-05-15 13:35:00,71.8,56.2,29.57,SW,226,6.0,13.0,58,0.00,,,0.00,Wunderground v.1.15,2013-05-15 17:35:00,
2013-05-15 13:45:00,71.9,56.3,29.57,SW,219,5.0,9.0,58,0.00,,,0.00,Wunderground v.1.15,2013-05-15 17:45:00,
2013-05-15 13:55:00,71.5,56.4,29.57,WSW,238,6.0,7.0,59,0.00,,,0.00,Wunderground v.1.15,2013-05-15 17:55:00,
2013-05-15 14:01:00,72.0,55.9,29.57,SW,221,5.0,5.0,57,0.00,,,0.00,Wunderground v.1.15,2013-05-15 18:01:00,
2013-05-15 14:10:00,72.9,57.3,29.57,South,184,6.0,6.0,58,0.00,,,0.00,Wunderground v.1.15,2013-05-15 18:10:00,
2013-05-15 14:15:00,73.2,57.1,29.58,SSW,210,5.0,7.0,57,0.00,,,0.00,Wunderground v.1.15,2013-05-15 18:15:00,
2013-05-15 14:25:00,73.8,57.1,29.58,SW,217,5.0,5.0,56,0.00,,,0.00,Wunderground v.1.15,2013-05-15 18:25:00,
2013-05-15 14:31:00,74.0,57.3,29.58,NNE,30,4.0,9.0,56,0.00,,,0.00,Wunderground v.1.15,2013-05-15 18:31:00,
2013-05-15 14:40:00,74.1,56.9,29.59,South,179,4.0,4.0,55,0.00,,,0.00,Wunderground v.1.15,2013-05-15 18:40:00,
2013-05-15 14:45:00,73.7,56.5,29.59,WSW,242,5.0,7.0,55,0.00,,,0.00,Wunderground v.1.15,2013-05-15 18:45:00,
2013-05-15 14:50:00,73.3,55.6,29.59,SSW,200,6.0,9.0,54,0.00,,,0.00,Wunderground v.1.15,2013-05-15 18:50:00,
2013-05-15 15:00:00,73.2,55.0,29.60,West,262,5.0,5.0,53,0.00,,,0.00,Wunderground v.1.15,2013-05-15 19:00:00,
2013-05-15 15:06:00,73.4,54.2,29.60,SW,225,5.0,5.0,51,0.00,,,0.00,Wunderground v.1.15,2013-05-15 19:06:00,
2013-05-15 15:15:00,73.6,54.4,29.61,NW,305,5.0,5.0,51,0.00,,,0.00,Wunderground v.1.15,2013-05-15 19:15:00,
2013-05-15 15:25:00,74.8,54.4,29.61,WSW,248,4.0,5.0,49,0.00,,,0.00,Wunderground v.1.15,2013-05-15 19:25:00,
2013-05-15 15:31:00,75.3,53.7,29.61,ENE,68,4.0,4.0,47,0.00,,,0.00,Wunderground v.1.15,2013-05-15 19:31:00,
2013-05-15 15:36:00,75.4,53.8,29.61,South,190,4.0,4.0,47,0.00,,,0.00,Wunderground v.1.15,2013-05-15 19:36:00,
2013-05-15 15:46:00,76.0,54.3,29.61,West,263,4.0,5.0,47,0.00,,,0.00,Wunderground v.1.15,2013-05-15 19:46:00,
2013-05-15 15:55:00,76.9,53.9,29.62,ENE,75,3.0,4.0,45,0.00,,,0.00,Wunderground v.1.15,2013-05-15 19:55:00,
2013-05-15 16:10:00,77.9,54.2,29.63,NE,46,4.0,4.0,44,0.00,,,0.00,Wunderground v.1.15,2013-05-15 20:10:00,
2013-05-15 16:15:00,78.1,52.5,29.63,West,269,4.0,4.0,41,0.00,,,0.00,Wunderground v.1.15,2013-05-15 20:15:00,
2013-05-15 16:20:00,78.0,52.4,29.63,NNW,340,3.0,3.0,41,0.00,,,0.00,Wunderground v.1.15,2013-05-15 20:20:00,
2013-05-15 16:30:00,77.5,51.9,29.63,SW,226,3.0,4.0,41,0.00,,,0.00,Wunderground v.1.15,2013-05-15 20:30:00,
2013-05-15 16:35:00,76.9,50.1,29.63,West,278,4.0,4.0,39,0.00,,,0.00,Wunderground v.1.15,2013-05-15 20:35:00,
2013-05-15 16:40:00,76.3,50.2,29.63,North,358,5.0,7.0,40,0.00,,,0.00,Wunderground v.1.15,2013-05-15 20:40:00,
2013-05-15 16:50:00,75.4,50.1,29.64,SW,229,5.0,5.0,41,0.00,,,0.00,Wunderground v.1.15,2013-05-15 20:50:00,
2013-05-15 16:55:00,75.3,50.6,29.64,WSW,253,5.0,5.0,42,0.00,,,0.00,Wunderground v.1.15,2013-05-15 20:55:00,
2013-05-15 17:01:00,75.4,50.7,29.64,WSW,250,4.0,4.0,42,0.00,,,0.00,Wunderground v.1.15,2013-05-15 21:01:00,
2013-05-15 17:06:00,75.6,51.5,29.64,NNW,332,4.0,4.0,43,0.00,,,0.00,Wunderground v.1.15,2013-05-15 21:06:00,
2013-05-15 17:15:00,76.3,51.5,29.64,SSW,212,4.0,4.0,42,0.00,,,0.00,Wunderground v.1.15,2013-05-15 21:15:00,
2013-05-15 17:25:00,77.1,51.6,29.64,SW,217,4.0,4.0,41,0.00,,,0.00,Wunderground v.1.15,2013-05-15 21:25:00,
2013-05-15 17:30:00,76.9,51.4,29.65,ESE,104,4.0,11.0,41,0.00,,,0.00,Wunderground v.1.15,2013-05-15 21:30:00,
2013-05-15 17:40:00,77.2,51.7,29.65,South,181,4.0,4.0,41,0.00,,,0.00,Wunderground v.1.15,2013-05-15 21:40:00,
2013-05-15 17:50:00,77.5,50.6,29.65,West,269,5.0,5.0,39,0.00,,,0.00,Wunderground v.1.15,2013-05-15 21:50:00,
2013-05-15 18:00:00,76.9,49.4,29.66,NNW,346,5.0,5.0,38,0.00,,,0.00,Wunderground v.1.15,2013-05-15 22:00:00,
2013-05-15 18:05:00,77.0,49.4,29.66,WNW,291,4.0,5.0,38,0.00,,,0.00,Wunderground v.1.15,2013-05-15 22:05:00,
2013-05-15 18:15:00,76.1,50.7,29.66,NW,316,3.0,4.0,41,0.00,,,0.00,Wunderground v.1.15,2013-05-15 22:15:00,
2013-05-15 18:25:00,75.9,50.5,29.66,NW,326,3.0,3.0,41,0.00,,,0.00,Wunderground v.1.15,2013-05-15 22:25:00,
2013-05-15 18:31:00,75.8,50.4,29.66,WNW,284,2.0,2.0,41,0.00,,,0.00,Wunderground v.1.15,2013-05-15 22:31:00,
2013-05-15 18:40:00,75.4,50.1,29.67,West,278,3.0,7.0,41,0.00,,,0.00,Wunderground v.1.15,2013-05-15 22:40:00,
2013-05-15 18:50:00,74.6,49.3,29.68,WSW,245,4.0,4.0,41,0.00,,,0.00,Wunderground v.1.15,2013-05-15 22:50:00,
2013-05-15 18:56:00,74.2,49.6,29.68,North,355,4.0,4.0,42,0.00,,,0.00,Wunderground v.1.15,2013-05-15 22:56:00,
2013-05-15 19:05:00,73.3,48.8,29.68,NNW,334,2.0,3.0,42,0.00,,,0.00,Wunderground v.1.15,2013-05-15 23:05:00,
2013-05-15 19:10:00,72.8,49.0,29.68,North,11,2.0,3.0,43,0.00,,,0.00,Wunderground v.1.15,2013-05-15 23:10:00,
2013-05-15 19:20:00,71.7,49.2,29.69,NNW,346,2.0,2.0,45,0.00,,,0.00,Wunderground v.1.15,2013-05-15 23:20:00,
2013-05-15 19:25:00,71.0,48.0,29.69,NW,321,2.0,2.0,44,0.00,,,0.00,Wunderground v.1.15,2013-05-15 23:25:00,
2013-05-15 19:35:00,70.1,47.8,29.70,NNE,19,2.0,2.0,45,0.00,,,0.00,Wunderground v.1.15,2013-05-15 23:35:00,
2013-05-15 19:41:00,69.8,47.5,29.70,NW,304,2.0,2.0,45,0.00,,,0.00,Wunderground v.1.15,2013-05-15 23:41:00,
2013-05-15 19:50:00,69.3,45.8,29.70,NE,42,2.0,3.0,43,0.00,,,0.00,Wunderground v.1.15,2013-05-15 23:50:00,
2013-05-15 19:55:00,69.0,44.9,29.70,NNW,338,2.0,3.0,42,0.00,,,0.00,Wunderground v.1.15,2013-05-15 23:55:00,
2013-05-15 20:01:00,68.8,44.8,29.70,NW,324,1.0,1.0,42,0.00,,,0.00,Wunderground v.1.15,2013-05-16 00:01:00,
2013-05-15 20:10:00,68.5,43.9,29.71,WNW,290,1.0,1.0,41,0.00,,,0.00,Wunderground v.1.15,2013-05-16 00:10:00,
2013-05-15 20:16:00,68.3,43.7,29.70,NNE,15,1.0,1.0,41,0.00,,,0.00,Wunderground v.1.15,2013-05-16 00:16:00,
2013-05-15 20:21:00,68.0,43.4,29.70,NNE,15,0.0,1.0,41,0.00,,,0.00,Wunderground v.1.15,2013-05-16 00:21:00,
2013-05-15 20:30:00,67.6,43.1,29.70,NNW,338,0.0,0.0,41,0.00,,,0.00,Wunderground v.1.15,2013-05-16 00:30:00,
2013-05-15 20:35:00,67.4,43.5,29.71,NNW,338,0.0,0.0,42,0.00,,,0.00,Wunderground v.1.15,2013-05-16 00:35:00,
2013-05-15 20:41:00,67.2,43.3,29.71,WSW,248,0.0,0.0,42,0.00,,,0.00,Wunderground v.1.15,2013-05-16 00:41:00,
2013-05-15 20:50:00,66.8,43.6,29.72,WSW,249,0.0,0.0,43,0.00,,,0.00,Wunderground v.1.15,2013-05-16 00:50:00,
2013-05-15 21:00:00,65.8,43.9,29.71,WSW,248,0.0,0.0,45,0.00,,,0.00,Wunderground v.1.15,2013-05-16 01:00:00,
2013-05-15 21:10:00,64.5,43.8,29.71,WSW,249,0.0,0.0,47,0.00,,,0.00,Wunderground v.1.15,2013-05-16 01:10:00,
2013-05-15 21:15:00,63.9,43.8,29.71,WSW,249,0.0,0.0,48,0.00,,,0.00,Wunderground v.1.15,2013-05-16 01:15:00,
2013-05-15 21:20:00,63.7,46.7,29.71,WSW,247,1.0,1.0,54,0.00,,,0.00,Wunderground v.1.15,2013-05-16 01:20:00,
2013-05-15 21:25:00,62.8,49.1,29.72,SE,141,2.0,2.0,61,0.00,,,0.00,Wunderground v.1.15,2013-05-16 01:25:00,
2013-05-15 21:35:00,60.4,49.0,29.73,South,187,1.0,2.0,66,0.00,,,0.00,Wunderground v.1.15,2013-05-16 01:35:00,
2013-05-15 21:45:00,58.9,49.1,29.74,South,177,1.0,2.0,70,0.00,,,0.00,Wunderground v.1.15,2013-05-16 01:45:00,
2013-05-15 21:50:00,58.5,48.7,29.74,SE,139,1.0,2.0,70,0.00,,,0.00,Wunderground v.1.15,2013-05-16 01:50:00,
2013-05-15 22:00:00,57.7,48.7,29.74,SSE,154,1.0,1.0,72,0.00,,,0.00,Wunderground v.1.15,2013-05-16 02:00:00,
2013-05-15 22:10:00,57.4,48.4,29.74,WSW,256,1.0,1.0,72,0.00,,,0.00,Wunderground v.1.15,2013-05-16 02:10:00,
2013-05-15 22:21:00,57.2,48.3,29.75,WSW,249,1.0,1.0,72,0.00,,,0.00,Wunderground v.1.15,2013-05-16 02:21:00,
2013-05-15 22:30:00,57.3,48.7,29.75,SSW,208,1.0,1.0,73,0.00,,,0.00,Wunderground v.1.15,2013-05-16 02:30:00,
2013-05-15 22:40:00,57.7,48.7,29.74,SSE,157,0.0,0.0,72,0.00,,,0.00,Wunderground v.1.15,2013-05-16 02:40:00,
2013-05-15 22:45:00,57.8,48.8,29.74,South,169,1.0,2.0,72,0.00,,,0.00,Wunderground v.1.15,2013-05-16 02:45:00,
2013-05-15 22:55:00,58.1,49.1,29.74,SE,138,0.0,0.0,72,0.00,,,0.00,Wunderground v.1.15,2013-05-16 02:55:00,
2013-05-15 23:01:00,58.2,49.2,29.74,SSE,148,0.0,0.0,72,0.00,,,0.00,Wunderground v.1.15,2013-05-16 03:01:00,
2013-05-15 23:11:00,58.4,49.0,29.73,SW,229,0.0,0.0,71,0.00,,,0.00,Wunderground v.1.15,2013-05-16 03:11:00,
2013-05-15 23:20:00,58.7,48.9,29.73,SW,226,1.0,1.0,70,0.00,,,0.00,Wunderground v.1.15,2013-05-16 03:20:00,
2013-05-15 23:26:00,58.8,49.0,29.73,South,191,1.0,1.0,70,0.00,,,0.00,Wunderground v.1.15,2013-05-16 03:26:00,
2013-05-15 23:35:00,58.8,48.3,29.73,SSE,167,2.0,2.0,68,0.00,,,0.00,Wunderground v.1.15,2013-05-16 03:35:00,
2013-05-15 23:45:00,58.9,48.4,29.73,SW,215,1.0,2.0,68,0.00,,,0.00,Wunderground v.1.15,2013-05-16 03:45:00,
2013-05-15 23:56:00,58.7,48.6,29.73,South,187,1.0,2.0,69,0.00,,,0.00,Wunderground v.1.15,2013-05-16 03:56:00,